createdAt,value
2018-02-11T00:02:19.026Z,30.27
2018-02-11T00:04:46.654Z,29.77
2018-02-11T00:07:14.230Z,31.73
2018-02-11T00:09:41.815Z,28.65
2018-02-11T00:12:09.398Z,30.50
2018-02-11T00:14:36.985Z,27.40
2018-02-11T00:17:04.671Z,31.17
2018-02-11T00:19:32.255Z,28.37
2018-02-11T00:21:59.847Z,29.70
2018-02-11T00:24:27.450Z,29.37
2018-02-11T00:26:55.037Z,29.77
2018-02-11T00:29:22.714Z,28.37
2018-02-11T00:31:50.310Z,29.60
2018-02-11T00:34:17.890Z,30.13
2018-02-11T00:36:51.130Z,29.60
2018-02-11T00:39:18.718Z,29.23
2018-02-11T00:41:46.300Z,30.30
2018-02-11T00:44:13.877Z,29.60
2018-02-11T00:46:41.454Z,29.93
2018-02-11T00:49:09.031Z,30.00
2018-02-11T00:51:36.614Z,34.80
2018-02-11T00:54:04.257Z,28.23
2018-02-11T00:56:31.850Z,27.27
2018-02-11T00:58:59.483Z,33.13
2018-02-11T01:01:27.063Z,29.23
2018-02-11T01:03:54.752Z,27.07
2018-02-11T01:06:22.338Z,29.37
2018-02-11T01:08:49.922Z,29.50
2018-02-11T01:11:17.541Z,31.60
2018-02-11T01:13:45.125Z,29.13
2018-02-11T01:16:12.786Z,31.70
2018-02-11T01:18:40.474Z,28.20
2018-02-11T01:21:08.050Z,28.87
2018-02-11T01:23:35.631Z,29.50
2018-02-11T01:26:03.219Z,30.00
2018-02-11T01:28:30.806Z,29.67
2018-02-11T01:30:58.378Z,29.17
2018-02-11T01:33:25.958Z,30.27
2018-02-11T01:35:53.546Z,31.70
2018-02-11T01:38:21.134Z,31.27
2018-02-11T01:40:48.714Z,29.57
2018-02-11T01:43:16.338Z,29.12
2018-02-11T01:45:43.935Z,31.62
2018-02-11T01:48:11.579Z,29.55
2018-02-11T01:50:39.167Z,31.52
2018-02-11T01:53:06.757Z,29.63
2018-02-11T01:55:34.331Z,31.47
2018-02-11T01:58:01.914Z,30.13
2018-02-11T02:00:29.509Z,31.33
2018-02-11T02:02:57.094Z,29.40
2018-02-11T02:05:24.689Z,31.48
2018-02-11T02:07:52.284Z,29.83
2018-02-11T02:10:19.967Z,31.48
2018-02-11T02:12:47.631Z,35.08
2018-02-11T02:15:15.213Z,30.17
2018-02-11T02:17:42.800Z,30.58
2018-02-11T02:20:10.442Z,34.25
2018-02-11T02:22:38.038Z,33.20
2018-02-11T02:25:05.835Z,30.50
2018-02-11T02:27:33.507Z,32.40
2018-02-11T02:30:01.100Z,34.63
2018-02-11T02:32:28.694Z,30.55
2018-02-11T02:34:56.386Z,29.90
2018-02-11T02:37:24.089Z,29.33
2018-02-11T02:39:52.073Z,34.70
2018-02-11T02:42:19.698Z,30.98
2018-02-11T02:44:47.383Z,32.28
2018-02-11T02:47:14.971Z,29.77
2018-02-11T02:49:42.559Z,29.40
2018-02-11T02:52:10.154Z,30.37
2018-02-11T02:54:37.746Z,35.10
2018-02-11T02:57:05.390Z,35.00
2018-02-11T02:59:32.979Z,36.20
2018-02-11T03:02:00.609Z,32.50
2018-02-11T03:04:28.395Z,35.40
2018-02-11T03:06:56.160Z,34.70
2018-02-11T03:09:23.741Z,30.97
2018-02-11T03:11:51.327Z,32.08
2018-02-11T03:14:18.925Z,32.42
2018-02-11T03:16:46.514Z,31.62
2018-02-11T03:19:14.156Z,34.00
2018-02-11T03:21:41.788Z,31.63
2018-02-11T03:24:09.369Z,32.33
2018-02-11T03:26:36.950Z,31.60
2018-02-11T03:29:04.574Z,30.25
2018-02-11T03:31:32.171Z,32.63
2018-02-11T03:33:59.745Z,35.30
2018-02-11T03:36:27.329Z,32.93
2018-02-11T03:38:54.910Z,33.10
2018-02-11T03:41:22.493Z,31.50
2018-02-11T03:43:50.106Z,32.10
2018-02-11T03:46:17.727Z,32.47
2018-02-11T03:48:45.311Z,32.00
2018-02-11T03:51:12.898Z,33.67
2018-02-11T03:53:40.487Z,33.20
2018-02-11T03:56:08.144Z,33.40
2018-02-11T03:58:35.735Z,29.45
2018-02-11T04:01:03.323Z,33.17
2018-02-11T04:03:30.905Z,31.20
2018-02-11T04:05:58.484Z,31.30
2018-02-11T04:08:26.078Z,31.67
2018-02-11T04:10:53.659Z,35.40
2018-02-11T04:13:21.273Z,32.60
2018-02-11T04:15:48.931Z,32.90
2018-02-11T04:18:16.528Z,34.47
2018-02-11T04:20:44.114Z,32.03
2018-02-11T04:23:11.703Z,36.05
2018-02-11T04:25:39.283Z,33.40
2018-02-11T04:28:06.866Z,34.85
2018-02-11T04:30:34.455Z,36.58
2018-02-11T04:33:02.093Z,35.75
2018-02-11T04:35:29.675Z,33.40
2018-02-11T04:37:57.275Z,35.97
2018-02-11T04:40:24.979Z,34.77
2018-02-11T04:42:52.613Z,31.15
2018-02-11T04:45:20.270Z,33.83
2018-02-11T04:47:47.971Z,36.10
2018-02-11T04:50:15.595Z,32.60
2018-02-11T04:52:43.189Z,35.45
2018-02-11T04:55:10.934Z,33.20
2018-02-11T04:57:38.548Z,32.87
2018-02-11T05:00:06.126Z,38.20
2018-02-11T05:02:33.743Z,33.88
2018-02-11T05:05:01.334Z,33.13
2018-02-11T05:07:28.919Z,34.92
2018-02-11T05:09:56.544Z,39.05
2018-02-11T05:12:24.117Z,34.87
2018-02-11T05:14:51.703Z,35.00
2018-02-11T05:17:19.275Z,36.97
2018-02-11T05:19:46.866Z,36.05
2018-02-11T05:22:14.450Z,35.60
2018-02-11T05:24:42.099Z,32.47
2018-02-11T05:27:09.682Z,35.00
2018-02-11T05:29:37.273Z,33.65
2018-02-11T05:32:04.942Z,32.63
2018-02-11T05:34:32.604Z,31.17
2018-02-11T05:37:00.192Z,31.27
2018-02-11T05:39:27.776Z,34.83
2018-02-11T05:41:55.394Z,31.27
2018-02-11T05:44:22.980Z,33.17
2018-02-11T05:46:50.554Z,32.23
2018-02-11T05:49:18.140Z,34.47
2018-02-11T05:51:45.726Z,32.97
2018-02-11T05:54:13.302Z,32.80
2018-02-11T05:56:40.877Z,33.17
2018-02-11T05:59:08.455Z,29.33
2018-02-11T06:01:36.039Z,35.00
2018-02-11T06:04:03.626Z,31.50
2018-02-11T06:06:31.222Z,31.12
2018-02-11T06:08:58.810Z,31.58
2018-02-11T06:11:26.392Z,32.40
2018-02-11T06:13:53.983Z,32.40
2018-02-11T06:16:21.569Z,35.50
2018-02-11T06:18:49.199Z,31.77
2018-02-11T06:21:16.878Z,32.83
2018-02-11T06:23:45.082Z,32.87
2018-02-11T06:26:12.670Z,30.17
2018-02-11T06:28:40.325Z,32.20
2018-02-11T06:31:07.929Z,28.58
2018-02-11T06:33:35.532Z,28.80
2018-02-11T06:36:03.123Z,28.48
2018-02-11T06:38:30.707Z,29.63
2018-02-11T06:40:58.278Z,32.30
2018-02-11T06:43:25.860Z,30.53
2018-02-11T06:45:53.441Z,29.10
2018-02-11T06:48:21.028Z,29.42
2018-02-11T06:50:48.727Z,28.38
2018-02-11T06:53:16.306Z,26.03
2018-02-11T06:55:43.883Z,27.13
2018-02-11T06:58:11.460Z,25.17
2018-02-11T07:00:39.038Z,26.23
2018-02-11T07:03:06.618Z,26.93
2018-02-11T07:05:34.195Z,26.33
2018-02-11T07:08:01.893Z,25.20
2018-02-11T07:10:29.517Z,28.00
2018-02-11T07:12:57.099Z,24.33
2018-02-11T07:15:24.680Z,25.27
2018-02-11T07:17:52.406Z,24.30
2018-02-11T07:20:19.991Z,24.63
2018-02-11T07:22:47.602Z,22.70
2018-02-11T07:25:15.242Z,26.27
2018-02-11T07:27:42.851Z,22.63
2018-02-11T07:30:10.437Z,22.73
2018-02-11T07:32:38.028Z,22.93
2018-02-11T07:35:05.698Z,19.37
2018-02-11T07:37:33.270Z,21.90
2018-02-11T07:40:00.852Z,20.80
2018-02-11T07:42:28.434Z,19.20
2018-02-11T07:44:56.015Z,19.43
2018-02-11T07:47:23.594Z,21.07
2018-02-11T07:49:51.422Z,17.33
2018-02-11T07:52:19.125Z,18.63
2018-02-11T07:54:46.705Z,18.47
2018-02-11T07:57:14.286Z,18.30
2018-02-11T07:59:41.869Z,18.20
2018-02-11T08:02:09.450Z,15.50
2018-02-11T08:04:37.044Z,16.30
2018-02-11T08:07:04.746Z,17.30
2018-02-11T08:09:32.506Z,16.63
2018-02-11T08:12:00.099Z,14.43
2018-02-11T08:14:27.718Z,17.30
2018-02-11T08:16:55.338Z,15.13
2018-02-11T08:19:22.927Z,16.50
2018-02-11T08:21:50.650Z,14.63
2018-02-11T08:24:18.291Z,14.70
2018-02-11T08:26:45.979Z,15.07
2018-02-11T08:29:13.601Z,14.57
2018-02-11T08:31:41.234Z,14.67
2018-02-11T08:34:08.865Z,14.50
2018-02-11T08:36:36.478Z,13.93
2018-02-11T08:39:04.060Z,13.60
2018-02-11T08:41:31.636Z,11.37
2018-02-11T08:43:59.214Z,12.27
2018-02-11T08:46:26.799Z,14.30
2018-02-11T08:48:54.382Z,12.33
2018-02-11T08:51:21.963Z,12.57
2018-02-11T08:53:49.629Z,12.90
2018-02-11T08:56:17.249Z,11.53
2018-02-11T08:58:44.822Z,13.73
2018-02-11T09:01:12.438Z,11.80
2018-02-11T09:03:40.024Z,11.77
2018-02-11T09:06:07.605Z,13.00
2018-02-11T09:08:35.263Z,11.40
2018-02-11T09:11:02.838Z,10.70
2018-02-11T09:13:30.448Z,10.30
2018-02-11T09:15:58.031Z,11.10
2018-02-11T09:18:25.602Z,9.93
2018-02-11T09:20:53.198Z,12.10
2018-02-11T09:23:20.782Z,11.73
2018-02-11T09:25:48.393Z,11.23
2018-02-11T09:28:16.140Z,10.60
2018-02-11T09:30:47.936Z,11.20
2018-02-11T09:33:18.255Z,9.67
2018-02-11T09:35:46.500Z,10.43
2018-02-11T09:38:14.596Z,10.17
2018-02-11T09:40:42.350Z,9.70
2018-02-11T09:43:10.655Z,9.70
2018-02-11T09:45:38.248Z,10.03
2018-02-11T09:48:06.069Z,11.23
2018-02-11T09:50:33.646Z,9.47
2018-02-11T09:53:01.242Z,8.87
2018-02-11T09:55:28.911Z,10.37
2018-02-11T09:57:56.503Z,9.50
2018-02-11T10:00:24.728Z,9.63
2018-02-11T10:02:52.485Z,9.07
2018-02-11T10:05:20.194Z,8.93
2018-02-11T10:07:47.811Z,8.63
2018-02-11T10:10:15.394Z,9.60
2018-02-11T10:12:42.963Z,9.07
2018-02-11T10:15:10.588Z,7.93
2018-02-11T10:17:39.328Z,8.37
2018-02-11T10:20:06.903Z,8.30
2018-02-11T10:22:34.552Z,8.87
2018-02-11T10:25:02.127Z,7.83
2018-02-11T10:27:29.720Z,7.93
2018-02-11T10:29:57.298Z,8.10
2018-02-11T10:32:24.906Z,8.80
2018-02-11T10:34:52.475Z,9.00
2018-02-11T10:37:20.166Z,6.67
2018-02-11T10:39:47.882Z,8.20
2018-02-11T10:42:15.495Z,6.80
2018-02-11T10:44:43.058Z,6.70
2018-02-11T10:47:10.635Z,8.17
2018-02-11T10:49:38.774Z,6.90
2018-02-11T10:52:07.019Z,7.80
2018-02-11T10:54:34.655Z,7.40
2018-02-11T10:57:02.293Z,6.73
2018-02-11T10:59:30.805Z,6.60
2018-02-11T11:01:58.383Z,6.80
2018-02-11T11:04:25.978Z,6.00
2018-02-11T11:06:55.365Z,6.83
2018-02-11T11:09:23.067Z,6.37
2018-02-11T11:11:50.691Z,7.20
2018-02-11T11:14:18.311Z,7.43
2018-02-11T11:16:45.959Z,7.00
2018-02-11T11:19:13.530Z,7.20
2018-02-11T11:21:41.106Z,6.13
2018-02-11T11:24:08.678Z,5.97
2018-02-11T11:26:36.291Z,6.37
2018-02-11T11:29:03.867Z,7.07
2018-02-11T11:31:31.496Z,6.07
2018-02-11T11:33:59.103Z,6.40
2018-02-11T11:36:26.719Z,5.87
2018-02-11T11:38:54.287Z,6.80
2018-02-11T11:41:21.890Z,6.37
2018-02-11T11:43:49.474Z,6.43
2018-02-11T11:46:17.091Z,6.67
2018-02-11T11:48:44.702Z,5.73
2018-02-11T11:51:12.275Z,6.37
2018-02-11T11:53:39.886Z,7.60
2018-02-11T11:56:07.467Z,7.47
2018-02-11T11:58:35.054Z,6.83
2018-02-11T12:01:02.686Z,6.40
2018-02-11T12:03:30.337Z,7.60
2018-02-11T12:05:57.980Z,6.90
2018-02-11T12:08:25.674Z,7.37
2018-02-11T12:10:53.248Z,7.30
2018-02-11T12:13:20.822Z,6.93
2018-02-11T12:15:48.431Z,6.60
2018-02-11T12:18:16.047Z,6.97
2018-02-11T12:20:43.655Z,6.03
2018-02-11T12:23:11.261Z,6.07
2018-02-11T12:25:38.827Z,7.57
2018-02-11T12:28:06.395Z,6.30
2018-02-11T12:30:34.062Z,6.33
2018-02-11T12:33:01.642Z,6.37
2018-02-11T12:35:29.227Z,6.50
2018-02-11T12:37:56.870Z,5.87
2018-02-11T12:40:24.438Z,5.70
2018-02-11T12:42:52.011Z,6.13
2018-02-11T12:45:19.587Z,6.50
2018-02-11T12:47:47.222Z,6.37
2018-02-11T12:50:15.118Z,6.00
2018-02-11T12:52:42.755Z,6.53
2018-02-11T12:55:10.330Z,7.50
2018-02-11T12:57:37.974Z,5.50
2018-02-11T13:00:05.588Z,5.80
2018-02-11T13:02:33.157Z,6.83
2018-02-11T13:05:01.290Z,6.23
2018-02-11T13:07:28.863Z,6.43
2018-02-11T13:09:56.494Z,7.50
2018-02-11T13:12:24.112Z,8.40
2018-02-11T13:14:51.682Z,7.50
2018-02-11T13:17:19.255Z,8.17
2018-02-11T13:19:46.831Z,7.33
2018-02-11T13:22:15.289Z,6.80
2018-02-11T13:24:44.957Z,7.43
2018-02-11T13:27:13.258Z,6.23
2018-02-11T13:29:40.838Z,7.00
2018-02-11T13:32:08.452Z,8.33
2018-02-11T13:34:36.103Z,8.10
2018-02-11T13:37:03.759Z,8.93
2018-02-11T13:39:32.109Z,9.03
2018-02-11T13:41:59.744Z,8.00
2018-02-11T13:44:27.319Z,9.47
2018-02-11T13:46:54.936Z,10.17
2018-02-11T13:49:22.639Z,9.67
2018-02-11T13:51:50.259Z,8.60
2018-02-11T13:54:17.859Z,9.50
2018-02-11T13:56:45.437Z,8.97
2018-02-11T13:59:13.098Z,8.80
2018-02-11T14:01:40.799Z,8.93
2018-02-11T14:04:08.490Z,8.83
2018-02-11T14:06:36.126Z,9.03
2018-02-11T14:09:03.740Z,8.70
2018-02-11T14:11:31.314Z,8.30
2018-02-11T14:13:58.928Z,8.33
2018-02-11T14:16:26.504Z,10.60
2018-02-11T14:18:54.087Z,8.07
2018-02-11T14:21:21.691Z,10.00
2018-02-11T14:23:49.306Z,10.17
2018-02-11T14:26:16.914Z,8.70
2018-02-11T14:28:44.575Z,9.50
2018-02-11T14:31:12.146Z,9.00
2018-02-11T14:33:39.770Z,8.90
2018-02-11T14:36:07.383Z,9.27
2018-02-11T14:38:34.992Z,9.00
2018-02-11T14:41:02.566Z,8.93
2018-02-11T14:43:30.246Z,9.10
2018-02-11T14:45:57.835Z,10.40
2018-02-11T14:48:25.410Z,9.77
2018-02-11T14:50:53.000Z,9.97
2018-02-11T14:53:20.611Z,10.17
2018-02-11T14:55:48.193Z,10.87
2018-02-11T14:58:16.948Z,9.23
2018-02-11T15:00:44.571Z,12.53
2018-02-11T15:03:12.687Z,11.27
2018-02-11T15:05:40.344Z,11.47
2018-02-11T15:08:08.007Z,11.57
2018-02-11T15:10:35.623Z,13.07
2018-02-11T15:13:03.194Z,12.60
2018-02-11T15:15:30.813Z,13.20
2018-02-11T15:17:58.552Z,13.50
2018-02-11T15:20:26.183Z,12.10
2018-02-11T15:22:54.146Z,13.70
2018-02-11T15:25:21.822Z,12.97
2018-02-11T15:27:49.683Z,11.40
2018-02-11T15:30:17.384Z,11.50
2018-02-11T15:32:45.000Z,12.67
2018-02-11T15:35:12.584Z,13.07
2018-02-11T15:37:40.195Z,12.70
2018-02-11T15:40:07.779Z,12.60
2018-02-11T15:42:35.394Z,13.13
2018-02-11T15:45:02.975Z,13.03
2018-02-11T15:47:30.591Z,12.03
2018-02-11T15:49:58.894Z,13.20
2018-02-11T15:52:26.589Z,13.33
2018-02-11T15:54:54.171Z,12.10
2018-02-11T15:57:21.779Z,12.67
2018-02-11T15:59:49.354Z,12.37
2018-02-11T16:02:17.001Z,11.70
2018-02-11T16:04:44.583Z,12.40
2018-02-11T16:07:12.169Z,13.53
2018-02-11T16:09:39.750Z,14.33
2018-02-11T16:12:07.466Z,12.40
2018-02-11T16:14:37.129Z,12.87
2018-02-11T16:17:05.685Z,13.63
2018-02-11T16:19:34.214Z,13.97
2018-02-11T16:22:01.837Z,12.90
2018-02-11T16:24:30.163Z,13.43
2018-02-11T16:27:00.761Z,15.37
2018-02-11T16:29:33.491Z,14.47
2018-02-11T16:32:01.216Z,14.67
2018-02-11T16:34:28.831Z,13.13
2018-02-11T16:36:56.408Z,13.10
2018-02-11T16:39:24.055Z,14.17
2018-02-11T16:41:51.719Z,12.63
2018-02-11T16:44:19.359Z,12.87
2018-02-11T16:46:46.997Z,13.43
2018-02-11T16:49:14.594Z,13.13
2018-02-11T16:51:42.171Z,13.87
2018-02-11T16:54:09.984Z,12.93
2018-02-11T16:56:37.566Z,11.90
2018-02-11T16:59:05.146Z,12.27
2018-02-11T17:01:32.746Z,12.77
2018-02-11T17:04:00.344Z,13.10
2018-02-11T17:06:28.158Z,11.87
2018-02-11T17:08:55.747Z,11.20
2018-02-11T17:11:23.324Z,12.20
2018-02-11T17:13:50.935Z,12.10
2018-02-11T17:16:18.520Z,12.93
2018-02-11T17:18:46.291Z,14.00
2018-02-11T17:21:13.866Z,11.27
2018-02-11T17:23:41.482Z,11.30
2018-02-11T17:26:09.277Z,10.97
2018-02-11T17:28:36.962Z,12.80
2018-02-11T17:31:04.570Z,11.47
2018-02-11T17:33:32.227Z,12.77
2018-02-11T17:36:00.227Z,12.53
2018-02-11T17:38:27.816Z,12.40
2018-02-11T17:40:55.399Z,10.63
2018-02-11T17:43:23.118Z,12.93
2018-02-11T17:45:50.698Z,11.80
2018-02-11T17:48:18.479Z,11.77
2018-02-11T17:50:46.103Z,11.87
2018-02-11T17:53:13.679Z,11.70
2018-02-11T17:55:41.255Z,11.67
2018-02-11T17:58:08.832Z,11.60
2018-02-11T18:00:36.671Z,11.63
2018-02-11T18:03:04.727Z,11.40
2018-02-11T18:05:32.622Z,11.40
2018-02-11T18:08:02.551Z,11.27
2018-02-11T18:10:30.378Z,11.07
2018-02-11T18:12:58.126Z,12.97
2018-02-11T18:15:25.915Z,12.57
2018-02-11T18:17:53.573Z,12.50
2018-02-11T18:20:21.163Z,11.00
2018-02-11T18:22:48.788Z,11.80
2018-02-11T18:25:16.640Z,10.27
2018-02-11T18:27:44.398Z,10.67
2018-02-11T18:30:11.982Z,10.37
2018-02-11T18:32:39.698Z,9.47
2018-02-11T18:35:07.292Z,10.87
2018-02-11T18:37:35.044Z,9.87
2018-02-11T18:40:02.750Z,10.83
2018-02-11T18:42:30.339Z,9.50
2018-02-11T18:44:58.047Z,10.10
2018-02-11T18:47:25.860Z,10.40
2018-02-11T18:49:54.733Z,10.10
2018-02-11T18:52:22.435Z,9.10
2018-02-11T18:54:50.007Z,9.37
2018-02-11T18:57:17.620Z,8.87
2018-02-11T18:59:45.483Z,9.90
2018-02-11T19:02:13.396Z,9.77
2018-02-11T19:04:41.028Z,10.17
2018-02-11T19:07:08.719Z,11.13
2018-02-11T19:09:36.467Z,9.00
2018-02-11T19:12:04.312Z,7.90
2018-02-11T19:14:31.964Z,9.30
2018-02-11T19:16:59.575Z,8.97
2018-02-11T19:19:27.401Z,7.73
2018-02-11T19:21:55.019Z,8.33
2018-02-11T19:24:22.665Z,9.20
2018-02-11T19:26:50.286Z,8.40
2018-02-11T19:29:18.134Z,8.73
2018-02-11T19:31:45.719Z,7.97
2018-02-11T19:34:13.424Z,7.83
2018-02-11T19:36:41.135Z,7.40
2018-02-11T19:39:08.901Z,7.90
2018-02-11T19:41:36.471Z,7.57
2018-02-11T19:44:04.044Z,7.30
2018-02-11T19:46:31.631Z,8.77
2018-02-11T19:48:59.471Z,7.60
2018-02-11T19:51:27.124Z,7.33
2018-02-11T19:53:54.706Z,7.67
2018-02-11T19:56:22.278Z,6.90
2018-02-11T19:58:50.008Z,6.73
2018-02-11T20:01:17.660Z,8.63
2018-02-11T20:03:45.242Z,6.70
2018-02-11T20:06:12.820Z,7.37
2018-02-11T20:08:40.548Z,7.03
2018-02-11T20:11:08.321Z,7.70
2018-02-11T20:13:35.919Z,8.63
2018-02-11T20:16:03.487Z,6.33
2018-02-11T20:18:31.071Z,6.07
2018-02-11T20:20:58.841Z,7.37
2018-02-11T20:23:26.473Z,6.73
2018-02-11T20:25:54.041Z,6.10
2018-02-11T20:28:21.625Z,6.13
2018-02-11T20:30:49.337Z,6.80
2018-02-11T20:33:17.844Z,6.47
2018-02-11T20:35:46.062Z,7.00
2018-02-11T20:38:13.636Z,6.37
2018-02-11T20:40:41.271Z,6.17
2018-02-11T20:43:09.050Z,6.80
2018-02-11T20:45:36.674Z,6.90
2018-02-11T20:48:04.245Z,5.57
2018-02-11T20:50:31.888Z,6.70
2018-02-11T20:52:59.557Z,6.03
2018-02-11T20:55:27.161Z,6.67
2018-02-11T20:57:55.144Z,7.23
2018-02-11T21:00:22.724Z,6.17
2018-02-11T21:02:50.299Z,6.57
2018-02-11T21:05:17.900Z,6.13
2018-02-11T21:07:45.563Z,6.20
2018-02-11T21:10:13.367Z,6.50
2018-02-11T21:12:41.059Z,6.03
2018-02-11T21:15:08.773Z,5.93
2018-02-11T21:17:36.342Z,6.97
2018-02-11T21:20:04.072Z,6.33
2018-02-11T21:22:31.655Z,6.10
2018-02-11T21:24:59.434Z,5.20
2018-02-11T21:27:27.137Z,6.00
2018-02-11T21:29:54.863Z,6.70
2018-02-11T21:32:22.483Z,5.60
2018-02-11T21:34:50.127Z,6.83
2018-02-11T21:37:18.071Z,4.90
2018-02-11T21:39:45.655Z,6.03
2018-02-11T21:42:13.474Z,5.87
2018-02-11T21:44:41.045Z,6.20
2018-02-11T21:47:08.654Z,7.17
2018-02-11T21:49:36.275Z,6.30
2018-02-11T21:52:03.848Z,6.60
2018-02-11T21:54:31.427Z,6.50
2018-02-11T21:56:59.041Z,5.80
2018-02-11T21:59:26.659Z,7.57
2018-02-11T22:01:54.482Z,7.50
2018-02-11T22:04:22.054Z,6.23
2018-02-11T22:06:49.626Z,7.00
2018-02-11T22:09:17.358Z,5.77
2018-02-11T22:11:44.966Z,7.60
2018-02-11T22:14:12.627Z,6.77
2018-02-11T22:16:40.202Z,7.10
2018-02-11T22:19:07.883Z,6.03
2018-02-11T22:21:35.446Z,6.40
2018-02-11T22:24:03.058Z,7.20
2018-02-11T22:26:30.734Z,6.17
2018-02-11T22:28:58.335Z,5.90
2018-02-11T22:31:25.907Z,6.30
2018-02-11T22:33:53.511Z,6.60
2018-02-11T22:36:21.076Z,7.00
2018-02-11T22:38:48.692Z,6.83
2018-02-11T22:41:16.406Z,6.70
2018-02-11T22:43:44.590Z,6.50
2018-02-11T22:46:12.168Z,7.00
2018-02-11T22:48:39.849Z,6.97
2018-02-11T22:51:07.415Z,7.03
2018-02-11T22:53:35.048Z,7.03
2018-02-11T22:56:02.694Z,6.90
2018-02-11T22:58:30.264Z,7.13
2018-02-11T23:00:57.913Z,6.90
2018-02-11T23:05:53.203Z,7.27
2018-02-11T23:08:20.776Z,6.77
2018-02-11T23:10:48.338Z,7.00
2018-02-11T23:13:15.910Z,7.23
2018-02-11T23:15:43.474Z,8.20
2018-02-11T23:18:11.048Z,7.57
2018-02-11T23:20:38.616Z,6.90
2018-02-11T23:23:06.183Z,7.27
2018-02-11T23:25:33.756Z,6.83
2018-02-11T23:28:01.385Z,7.43
2018-02-11T23:30:29.050Z,7.37
2018-02-11T23:32:56.719Z,7.67
2018-02-11T23:35:24.302Z,8.70
2018-02-11T23:37:51.970Z,8.00
2018-02-11T23:40:19.544Z,8.23
2018-02-11T23:42:47.226Z,7.27
2018-02-11T23:45:14.793Z,8.30
2018-02-11T23:47:42.489Z,8.03
2018-02-11T23:50:10.087Z,8.20
2018-02-11T23:52:37.664Z,8.87
2018-02-11T23:55:05.233Z,9.13
2018-02-11T23:57:32.806Z,8.53
